AFL1969 UDYZ-UUEE
Flight info
| Callsign | AFL1969 |
|---|---|
| Flight time | N/A |
| Altitude | 35000 |
| Route | SEVAN T916 SUBUT N996 GIPAR/K0859F350 A80 PIKAN DCT ITAKA/K0859F340 DCT EVZUN DCT ZIZAR DCT VAZLU DCT UZZID DCT NOKLI/K0870F350 N72 WGD G481 OBABI T619 LUGIL/K0876F360 T619 UMRAL/K0874F350 P163 LADIM/K0876F360 P163 GOLRI L736 OLOPI OLOPI3G |
| Aircraft | B738/M-SDE2E3FGHIRWXY/LB1 |
Departure
| Time | 2026-04-30 11:20 |
|---|---|
| Airport | Zvartnots International Airport (UDYZ) |
Arrival
| Time | N/A |
|---|---|
| Airport | Sheremetyevo International Airport (UUEE) |
| Time | Latitude | Longitude | Altitude | Speed | Heading |
|---|---|---|---|---|---|
| 2026-04-30 10:45 | 40.15095 | 44.40005 | 2836 ft | 0 kts | 359° |
| 2026-04-30 11:10 | 40.15084 | 44.40005 | 2835 ft | 4 kts | 1° |
| 2026-04-30 11:10 | 40.15057 | 44.40003 | 2835 ft | 4 kts | 6° |
| 2026-04-30 11:11 | 40.15030 | 44.39998 | 2835 ft | 4 kts | 12° |
| 2026-04-30 11:11 | 40.15004 | 44.39988 | 2836 ft | 4 kts | 28° |
| 2026-04-30 11:11 | 40.14986 | 44.39968 | 2836 ft | 4 kts | 78° |
| 2026-04-30 11:11 | 40.14985 | 44.39962 | 2836 ft | 0 kts | 89° |
| 2026-04-30 11:14 | 40.14985 | 44.39966 | 2836 ft | 2 kts | 89° |
| 2026-04-30 11:14 | 40.14985 | 44.40002 | 2836 ft | 5 kts | 89° |
| 2026-04-30 11:14 | 40.14986 | 44.40057 | 2836 ft | 7 kts | 89° |
| 2026-04-30 11:15 | 40.14986 | 44.40125 | 2836 ft | 8 kts | 89° |
| 2026-04-30 11:15 | 40.14987 | 44.40204 | 2836 ft | 9 kts | 89° |
| 2026-04-30 11:15 | 40.14988 | 44.40295 | 2836 ft | 11 kts | 89° |
| 2026-04-30 11:15 | 40.14989 | 44.40397 | 2837 ft | 12 kts | 88° |
| 2026-04-30 11:16 | 40.14992 | 44.40508 | 2837 ft | 13 kts | 88° |
| 2026-04-30 11:16 | 40.14992 | 44.40631 | 2837 ft | 14 kts | 93° |
| 2026-04-30 11:16 | 40.14991 | 44.40760 | 2836 ft | 15 kts | 89° |
| 2026-04-30 11:16 | 40.14993 | 44.40901 | 2836 ft | 16 kts | 90° |
| 2026-04-30 11:17 | 40.14993 | 44.41053 | 2837 ft | 17 kts | 90° |
| 2026-04-30 11:17 | 40.14994 | 44.41215 | 2836 ft | 18 kts | 90° |
| 2026-04-30 11:17 | 40.14994 | 44.41384 | 2837 ft | 19 kts | 90° |
| 2026-04-30 11:17 | 40.14996 | 44.41547 | 2837 ft | 15 kts | 89° |
| 2026-04-30 11:18 | 40.14986 | 44.41683 | 2836 ft | 15 kts | 115° |
| 2026-04-30 11:18 | 40.14868 | 44.41803 | 2839 ft | 10 kts | 152° |
| 2026-04-30 11:18 | 40.14806 | 44.41838 | 2843 ft | 10 kts | 169° |
| 2026-04-30 11:19 | 40.14748 | 44.41807 | 2842 ft | 10 kts | 247° |
| 2026-04-30 11:19 | 40.14744 | 44.41753 | 2842 ft | 0 kts | 270° |
| 2026-04-30 11:19 | 40.14743 | 44.41697 | 2842 ft | 28 kts | 269° |
| 2026-04-30 11:19 | 40.14740 | 44.41126 | 2837 ft | 95 kts | 269° |
| 2026-04-30 11:20 | 40.14733 | 44.40007 | 2836 ft | 149 kts | 270° |
| 2026-04-30 11:20 | 40.14717 | 44.38453 | 2981 ft | 182 kts | 268° |
| 2026-04-30 11:20 | 40.14718 | 44.36766 | 3631 ft | 191 kts | 270° |
| 2026-04-30 11:20 | 40.14717 | 44.34971 | 4207 ft | 201 kts | 270° |
| 2026-04-30 11:21 | 40.15091 | 44.33212 | 4731 ft | 214 kts | 306° |
| 2026-04-30 11:21 | 40.16325 | 44.32064 | 4905 ft | 230 kts | 347° |
| 2026-04-30 11:21 | 40.17910 | 44.32202 | 5209 ft | 239 kts | 23° |
| 2026-04-30 11:21 | 40.19257 | 44.33522 | 5512 ft | 250 kts | 51° |
| 2026-04-30 11:22 | 40.20212 | 44.35407 | 6117 ft | 251 kts | 58° |
| 2026-04-30 11:22 | 40.21232 | 44.37383 | 6303 ft | 274 kts | 55° |
| 2026-04-30 11:22 | 40.22353 | 44.39453 | 6916 ft | 280 kts | 54° |
| 2026-04-30 11:22 | 40.23496 | 44.41538 | 7634 ft | 284 kts | 53° |
| 2026-04-30 11:23 | 40.24663 | 44.43654 | 8311 ft | 289 kts | 53° |
| 2026-04-30 11:23 | 40.25848 | 44.45801 | 9075 ft | 291 kts | 53° |
| 2026-04-30 11:23 | 40.28263 | 44.50170 | 10331 ft | 305 kts | 52° |
| 2026-04-30 11:24 | 40.29555 | 44.52505 | 10508 ft | 328 kts | 52° |
| 2026-04-30 11:24 | 40.30939 | 44.55009 | 10680 ft | 349 kts | 52° |
| 2026-04-30 11:24 | 40.32409 | 44.57674 | 10834 ft | 370 kts | 53° |
| 2026-04-30 11:25 | 40.35524 | 44.63330 | 11543 ft | 394 kts | 53° |
| 2026-04-30 11:25 | 40.37137 | 44.66260 | 12132 ft | 398 kts | 52° |
| 2026-04-30 11:25 | 40.40431 | 44.72173 | 13344 ft | 406 kts | 52° |
| 2026-04-30 11:26 | 40.43794 | 44.78192 | 14528 ft | 411 kts | 52° |
| 2026-04-30 11:26 | 40.45491 | 44.81240 | 15089 ft | 415 kts | 52° |
| 2026-04-30 11:26 | 40.47194 | 44.84304 | 15597 ft | 419 kts | 52° |
| 2026-04-30 11:27 | 40.48923 | 44.87418 | 16118 ft | 423 kts | 52° |
| 2026-04-30 11:27 | 40.50662 | 44.90552 | 16612 ft | 426 kts | 52° |
| 2026-04-30 11:27 | 40.52412 | 44.93710 | 17085 ft | 430 kts | 52° |
| 2026-04-30 11:27 | 40.54154 | 44.96937 | 17553 ft | 435 kts | 55° |
| 2026-04-30 11:28 | 40.57217 | 45.03886 | 18453 ft | 444 kts | 60° |
| 2026-04-30 11:28 | 40.58698 | 45.07480 | 18891 ft | 447 kts | 59° |
| 2026-04-30 11:28 | 40.60189 | 45.11075 | 19348 ft | 449 kts | 59° |
| 2026-04-30 11:29 | 40.61706 | 45.14682 | 19758 ft | 452 kts | 59° |
| 2026-04-30 11:29 | 40.63247 | 45.18300 | 20176 ft | 455 kts | 58° |
| 2026-04-30 11:29 | 40.66375 | 45.25584 | 21007 ft | 460 kts | 58° |
| 2026-04-30 11:30 | 40.69550 | 45.32980 | 21779 ft | 466 kts | 58° |
| 2026-04-30 11:30 | 40.71150 | 45.36716 | 22171 ft | 468 kts | 58° |
| 2026-04-30 11:30 | 40.72751 | 45.40462 | 22550 ft | 471 kts | 58° |
| 2026-04-30 11:31 | 40.74344 | 45.44195 | 22863 ft | 474 kts | 58° |
| 2026-04-30 11:31 | 40.75903 | 45.48046 | 23213 ft | 479 kts | 63° |
| 2026-04-30 11:31 | 40.77063 | 45.52198 | 23564 ft | 485 kts | 72° |
| 2026-04-30 11:31 | 40.77721 | 45.56575 | 23876 ft | 489 kts | 81° |
| 2026-04-30 11:32 | 40.78161 | 45.61048 | 24191 ft | 491 kts | 81° |
| 2026-04-30 11:32 | 40.78577 | 45.65533 | 24450 ft | 494 kts | 81° |
| 2026-04-30 11:32 | 40.78999 | 45.70070 | 24719 ft | 497 kts | 81° |
| 2026-04-30 11:33 | 40.79878 | 45.79127 | 25329 ft | 499 kts | 81° |
| 2026-04-30 11:33 | 40.80330 | 45.83626 | 25573 ft | 502 kts | 81° |
| 2026-04-30 11:33 | 40.80798 | 45.88254 | 25832 ft | 504 kts | 81° |
| 2026-04-30 11:33 | 40.81263 | 45.92847 | 26084 ft | 506 kts | 81° |
| 2026-04-30 11:34 | 40.81723 | 45.97398 | 26329 ft | 508 kts | 81° |
| 2026-04-30 11:34 | 40.82137 | 46.01528 | 26552 ft | 509 kts | 81° |
| 2026-04-30 11:34 | 40.82601 | 46.06169 | 26877 ft | 509 kts | 81° |
| 2026-04-30 11:34 | 40.83060 | 46.10797 | 27277 ft | 507 kts | 81° |
| 2026-04-30 11:35 | 40.83514 | 46.15398 | 27656 ft | 506 kts | 81° |
| 2026-04-30 11:35 | 40.83967 | 46.20005 | 27984 ft | 506 kts | 81° |
| 2026-04-30 11:35 | 40.84418 | 46.24616 | 28308 ft | 506 kts | 81° |
| 2026-04-30 11:35 | 40.84868 | 46.29225 | 28620 ft | 506 kts | 81° |
| 2026-04-30 11:36 | 40.85316 | 46.33835 | 28956 ft | 506 kts | 81° |
| 2026-04-30 11:36 | 40.85762 | 46.38445 | 29319 ft | 505 kts | 81° |
| 2026-04-30 11:36 | 40.86203 | 46.43027 | 29694 ft | 504 kts | 81° |
| 2026-04-30 11:36 | 40.86644 | 46.47625 | 30003 ft | 504 kts | 81° |
| 2026-04-30 11:37 | 40.87084 | 46.52235 | 30303 ft | 504 kts | 81° |
| 2026-04-30 11:37 | 40.87522 | 46.56837 | 30610 ft | 503 kts | 81° |
| 2026-04-30 11:37 | 40.87956 | 46.61418 | 30913 ft | 502 kts | 81° |
| 2026-04-30 11:37 | 40.88387 | 46.65997 | 31181 ft | 502 kts | 81° |
| 2026-04-30 11:38 | 40.88812 | 46.70513 | 31460 ft | 502 kts | 81° |
| 2026-04-30 11:38 | 40.89239 | 46.75079 | 31758 ft | 500 kts | 81° |
| 2026-04-30 11:38 | 40.89776 | 46.79624 | 32022 ft | 498 kts | 74° |
| 2026-04-30 11:38 | 40.90767 | 46.83999 | 32252 ft | 495 kts | 66° |
| 2026-04-30 11:39 | 40.92216 | 46.88094 | 32499 ft | 491 kts | 57° |
| 2026-04-30 11:39 | 40.93927 | 46.91982 | 32790 ft | 489 kts | 56° |
| 2026-04-30 11:39 | 40.95645 | 46.95870 | 33046 ft | 489 kts | 57° |
| 2026-04-30 11:39 | 40.97326 | 46.99791 | 33211 ft | 491 kts | 57° |
| 2026-04-30 11:40 | 40.98946 | 47.03649 | 33429 ft | 491 kts | 58° |
| 2026-04-30 11:40 | 41.00593 | 47.07592 | 33717 ft | 490 kts | 58° |
| 2026-04-30 11:40 | 41.02237 | 47.11536 | 33982 ft | 489 kts | 58° |
| 2026-04-30 11:40 | 41.03884 | 47.15484 | 34177 ft | 489 kts | 58° |
| 2026-04-30 11:41 | 41.05531 | 47.19433 | 34320 ft | 490 kts | 58° |
| 2026-04-30 11:41 | 41.07180 | 47.23390 | 34499 ft | 491 kts | 58° |
| 2026-04-30 11:41 | 41.08835 | 47.27364 | 34636 ft | 492 kts | 58° |
| 2026-04-30 11:41 | 41.10481 | 47.31325 | 34802 ft | 492 kts | 58° |
| 2026-04-30 11:42 | 41.12136 | 47.35312 | 34976 ft | 492 kts | 58° |
| 2026-04-30 11:42 | 41.13789 | 47.39299 | 35118 ft | 493 kts | 59° |
| 2026-04-30 11:42 | 41.15418 | 47.43233 | 35254 ft | 493 kts | 59° |
| 2026-04-30 11:42 | 41.17092 | 47.47279 | 35417 ft | 494 kts | 59° |
| 2026-04-30 11:43 | 41.18724 | 47.51230 | 35538 ft | 495 kts | 59° |
| 2026-04-30 11:43 | 41.20526 | 47.55105 | 35635 ft | 493 kts | 50° |
| 2026-04-30 11:43 | 41.22772 | 47.58532 | 35779 ft | 489 kts | 40° |
| 2026-04-30 11:43 | 41.25329 | 47.61482 | 35950 ft | 484 kts | 32° |
| 2026-04-30 11:44 | 41.31042 | 47.66111 | 36128 ft | 480 kts | 25° |
| 2026-04-30 11:44 | 41.36936 | 47.70374 | 36107 ft | 484 kts | 26° |
| 2026-04-30 11:45 | 41.42753 | 47.74956 | 36105 ft | 488 kts | 26° |
| 2026-04-30 11:45 | 41.48611 | 47.79588 | 36145 ft | 489 kts | 26° |
| 2026-04-30 11:46 | 41.54452 | 47.84177 | 36115 ft | 490 kts | 26° |
| 2026-04-30 11:46 | 41.60332 | 47.88795 | 36122 ft | 490 kts | 26° |
| 2026-04-30 11:47 | 41.66201 | 47.93398 | 36138 ft | 488 kts | 26° |
| 2026-04-30 11:47 | 41.72041 | 47.98012 | 36156 ft | 487 kts | 26° |
| 2026-04-30 11:48 | 41.77737 | 48.02518 | 36143 ft | 486 kts | 26° |
| 2026-04-30 11:48 | 41.83548 | 48.07121 | 36140 ft | 485 kts | 26° |
| 2026-04-30 11:49 | 41.89340 | 48.11718 | 36154 ft | 483 kts | 26° |
| 2026-04-30 11:49 | 41.95119 | 48.16315 | 36149 ft | 483 kts | 26° |
| 2026-04-30 11:50 | 42.00890 | 48.20916 | 36147 ft | 483 kts | 26° |
| 2026-04-30 11:50 | 42.06676 | 48.25536 | 36156 ft | 483 kts | 26° |
| 2026-04-30 11:51 | 42.12030 | 48.31051 | 36145 ft | 492 kts | 44° |
| 2026-04-30 11:51 | 42.16505 | 48.38071 | 36157 ft | 494 kts | 47° |
| 2026-04-30 11:52 | 42.20953 | 48.45134 | 36142 ft | 494 kts | 46° |
| 2026-04-30 11:52 | 42.25463 | 48.52138 | 36145 ft | 494 kts | 46° |
| 2026-04-30 11:53 | 42.29221 | 48.57943 | 36142 ft | 494 kts | 45° |
| 2026-04-30 11:53 | 42.33762 | 48.64907 | 36137 ft | 495 kts | 46° |
| 2026-04-30 11:54 | 42.38313 | 48.71898 | 36137 ft | 495 kts | 46° |
| 2026-04-30 11:54 | 42.42858 | 48.78909 | 36137 ft | 496 kts | 46° |
| 2026-04-30 11:55 | 42.47406 | 48.85946 | 36142 ft | 496 kts | 46° |
| 2026-04-30 11:55 | 42.51923 | 48.92953 | 36133 ft | 497 kts | 46° |
| 2026-04-30 11:56 | 42.56468 | 49.00020 | 36133 ft | 497 kts | 46° |
| 2026-04-30 11:56 | 42.60955 | 49.07012 | 36134 ft | 497 kts | 46° |
| 2026-04-30 11:57 | 42.65498 | 49.14109 | 36130 ft | 498 kts | 46° |
| 2026-04-30 11:57 | 42.70036 | 49.21217 | 36131 ft | 498 kts | 46° |
| 2026-04-30 11:58 | 42.74568 | 49.28332 | 36133 ft | 497 kts | 47° |
| 2026-04-30 11:58 | 42.79099 | 49.35463 | 36141 ft | 498 kts | 47° |
| 2026-04-30 11:59 | 42.83623 | 49.42599 | 36131 ft | 498 kts | 47° |
| 2026-04-30 11:59 | 42.85947 | 49.45998 | 36113 ft | 494 kts | 36° |
| 2026-04-30 11:59 | 42.88803 | 49.48492 | 36139 ft | 483 kts | 19° |
| 2026-04-30 12:00 | 42.91959 | 49.49911 | 36120 ft | 474 kts | 5° |
| 2026-04-30 12:00 | 42.95205 | 49.50272 | 36153 ft | 465 kts | 354° |
| 2026-04-30 12:00 | 43.01693 | 49.50158 | 36128 ft | 466 kts | 354° |
| 2026-04-30 12:01 | 43.08192 | 49.50038 | 36148 ft | 468 kts | 354° |
| 2026-04-30 12:01 | 43.14746 | 49.49998 | 36132 ft | 471 kts | 355° |
| 2026-04-30 12:02 | 43.21310 | 49.49997 | 36127 ft | 472 kts | 355° |
| 2026-04-30 12:02 | 43.27889 | 49.50002 | 36123 ft | 474 kts | 355° |
| 2026-04-30 12:03 | 43.37750 | 49.50004 | 36128 ft | 475 kts | 355° |
| 2026-04-30 12:04 | 43.44364 | 49.50004 | 36118 ft | 475 kts | 355° |
| 2026-04-30 12:04 | 43.50973 | 49.50003 | 36123 ft | 475 kts | 355° |
| 2026-04-30 12:05 | 43.57584 | 49.50003 | 36133 ft | 474 kts | 355° |
| 2026-04-30 12:05 | 43.64185 | 49.50002 | 36119 ft | 474 kts | 355° |
| 2026-04-30 12:06 | 43.70778 | 49.50001 | 36111 ft | 473 kts | 355° |
| 2026-04-30 12:06 | 43.77349 | 49.50001 | 36116 ft | 472 kts | 355° |
| 2026-04-30 12:07 | 43.83889 | 49.49962 | 36115 ft | 470 kts | 351° |
| 2026-04-30 12:07 | 43.90169 | 49.48153 | 36117 ft | 456 kts | 333° |
| 2026-04-30 12:08 | 43.95868 | 49.44431 | 36119 ft | 451 kts | 328° |
| 2026-04-30 12:08 | 44.01489 | 49.40557 | 36135 ft | 452 kts | 328° |
| 2026-04-30 12:09 | 44.07143 | 49.36700 | 36119 ft | 453 kts | 328° |
| 2026-04-30 12:09 | 44.12814 | 49.32864 | 36114 ft | 454 kts | 329° |
| 2026-04-30 12:10 | 44.18495 | 49.29026 | 36138 ft | 454 kts | 329° |
| 2026-04-30 12:10 | 44.24183 | 49.25178 | 36124 ft | 454 kts | 329° |
| 2026-04-30 12:11 | 44.29841 | 49.21340 | 36121 ft | 455 kts | 329° |
| 2026-04-30 12:11 | 44.35524 | 49.17477 | 36122 ft | 454 kts | 329° |
| 2026-04-30 12:12 | 44.41210 | 49.13602 | 36129 ft | 454 kts | 328° |
| 2026-04-30 12:12 | 44.46887 | 49.09725 | 36126 ft | 454 kts | 328° |
| 2026-04-30 12:13 | 44.52560 | 49.05842 | 36113 ft | 454 kts | 328° |
| 2026-04-30 12:13 | 44.58239 | 49.01947 | 36136 ft | 453 kts | 328° |
| 2026-04-30 12:14 | 44.63902 | 48.98054 | 36124 ft | 453 kts | 328° |
| 2026-04-30 12:14 | 44.69576 | 48.94145 | 36123 ft | 453 kts | 328° |
| 2026-04-30 12:15 | 44.75236 | 48.90237 | 36119 ft | 453 kts | 328° |
| 2026-04-30 12:15 | 44.80896 | 48.86321 | 36126 ft | 453 kts | 328° |
| 2026-04-30 12:16 | 44.86556 | 48.82395 | 36125 ft | 453 kts | 328° |
| 2026-04-30 12:16 | 44.92216 | 48.78462 | 36122 ft | 453 kts | 328° |
| 2026-04-30 12:17 | 45.00701 | 48.72548 | 36124 ft | 454 kts | 328° |
| 2026-04-30 12:17 | 45.06360 | 48.68593 | 36123 ft | 454 kts | 328° |
| 2026-04-30 12:18 | 45.11984 | 48.64654 | 36122 ft | 454 kts | 328° |
| 2026-04-30 12:18 | 45.17645 | 48.60680 | 36130 ft | 455 kts | 328° |
| 2026-04-30 12:19 | 45.23321 | 48.56686 | 36122 ft | 455 kts | 328° |
| 2026-04-30 12:19 | 45.28998 | 48.52683 | 36119 ft | 455 kts | 328° |
| 2026-04-30 12:20 | 45.34672 | 48.48674 | 36134 ft | 456 kts | 328° |
| 2026-04-30 12:20 | 45.40350 | 48.44652 | 36123 ft | 456 kts | 328° |
| 2026-04-30 12:21 | 45.46042 | 48.40611 | 36122 ft | 457 kts | 328° |
| 2026-04-30 12:21 | 45.51704 | 48.36582 | 36118 ft | 457 kts | 328° |
| 2026-04-30 12:22 | 45.57402 | 48.32518 | 36118 ft | 458 kts | 328° |
| 2026-04-30 12:22 | 45.63102 | 48.28444 | 36121 ft | 458 kts | 328° |
| 2026-04-30 12:23 | 45.68817 | 48.24350 | 36115 ft | 459 kts | 328° |
| 2026-04-30 12:23 | 45.74526 | 48.20250 | 36109 ft | 459 kts | 328° |
| 2026-04-30 12:24 | 45.80236 | 48.16140 | 36113 ft | 459 kts | 328° |
| 2026-04-30 12:24 | 45.85940 | 48.12026 | 36108 ft | 459 kts | 328° |
| 2026-04-30 12:25 | 45.91650 | 48.07897 | 36108 ft | 459 kts | 328° |
| 2026-04-30 12:25 | 45.97364 | 48.03755 | 36114 ft | 460 kts | 327° |
| 2026-04-30 12:26 | 46.02970 | 47.99683 | 36111 ft | 460 kts | 327° |
| 2026-04-30 12:26 | 46.08208 | 47.94632 | 36116 ft | 447 kts | 311° |
| 2026-04-30 12:27 | 46.12062 | 47.87788 | 36141 ft | 437 kts | 297° |
| 2026-04-30 12:27 | 46.15328 | 47.80381 | 36121 ft | 438 kts | 297° |
| 2026-04-30 12:28 | 46.18622 | 47.72969 | 36111 ft | 439 kts | 298° |
| 2026-04-30 12:28 | 46.21948 | 47.65570 | 36115 ft | 439 kts | 298° |
| 2026-04-30 12:29 | 46.25252 | 47.58212 | 36137 ft | 440 kts | 298° |
| 2026-04-30 12:29 | 46.28579 | 47.50782 | 36122 ft | 440 kts | 298° |
| 2026-04-30 12:30 | 46.31904 | 47.43336 | 36112 ft | 441 kts | 298° |
| 2026-04-30 12:30 | 46.35220 | 47.35892 | 36113 ft | 440 kts | 298° |
| 2026-04-30 12:31 | 46.38534 | 47.28430 | 36114 ft | 440 kts | 297° |
| 2026-04-30 12:31 | 46.41837 | 47.20974 | 36120 ft | 440 kts | 297° |
| 2026-04-30 12:32 | 46.45138 | 47.13502 | 36112 ft | 439 kts | 297° |
| 2026-04-30 12:32 | 46.48423 | 47.06045 | 36113 ft | 438 kts | 297° |
| 2026-04-30 12:33 | 46.51651 | 46.98698 | 36107 ft | 436 kts | 297° |
| 2026-04-30 12:33 | 46.54904 | 46.91276 | 36117 ft | 434 kts | 297° |
| 2026-04-30 12:34 | 46.58138 | 46.83877 | 36112 ft | 433 kts | 297° |
| 2026-04-30 12:34 | 46.61359 | 46.76489 | 36113 ft | 431 kts | 297° |
| 2026-04-30 12:35 | 46.64556 | 46.69133 | 36111 ft | 430 kts | 297° |
| 2026-04-30 12:35 | 46.67725 | 46.61823 | 36113 ft | 429 kts | 297° |
| 2026-04-30 12:36 | 46.70904 | 46.54473 | 36125 ft | 428 kts | 297° |
| 2026-04-30 12:36 | 46.74091 | 46.47080 | 36099 ft | 431 kts | 297° |
| 2026-04-30 12:37 | 46.77268 | 46.39693 | 36109 ft | 430 kts | 297° |
| 2026-04-30 12:37 | 46.80445 | 46.32288 | 36112 ft | 430 kts | 297° |
| 2026-04-30 12:38 | 46.83593 | 46.24930 | 36113 ft | 430 kts | 297° |
| 2026-04-30 12:38 | 46.86756 | 46.17516 | 36106 ft | 430 kts | 297° |
| 2026-04-30 12:39 | 46.89913 | 46.10108 | 36111 ft | 430 kts | 298° |
| 2026-04-30 12:39 | 46.94011 | 46.03595 | 36125 ft | 444 kts | 316° |
| 2026-04-30 12:40 | 46.99318 | 45.99003 | 36121 ft | 455 kts | 328° |
| 2026-04-30 12:40 | 47.04088 | 45.95747 | 36101 ft | 456 kts | 329° |
| 2026-04-30 12:41 | 47.09842 | 45.91837 | 36112 ft | 456 kts | 328° |
| 2026-04-30 12:41 | 47.15587 | 45.87849 | 36131 ft | 456 kts | 328° |
| 2026-04-30 12:42 | 47.21322 | 45.83817 | 36115 ft | 457 kts | 328° |
| 2026-04-30 12:42 | 47.27999 | 45.79103 | 36113 ft | 458 kts | 328° |
| 2026-04-30 12:43 | 47.32807 | 45.75701 | 36108 ft | 459 kts | 328° |
| 2026-04-30 12:43 | 47.38570 | 45.71616 | 36104 ft | 459 kts | 328° |
| 2026-04-30 12:44 | 47.44325 | 45.67528 | 36105 ft | 459 kts | 328° |
| 2026-04-30 12:44 | 47.50084 | 45.63427 | 36109 ft | 459 kts | 328° |
| 2026-04-30 12:45 | 47.55842 | 45.59317 | 36142 ft | 459 kts | 328° |
| 2026-04-30 12:45 | 47.61563 | 45.55222 | 36120 ft | 459 kts | 328° |
| 2026-04-30 12:46 | 47.67325 | 45.51088 | 36113 ft | 460 kts | 328° |
| 2026-04-30 12:46 | 47.73085 | 45.46945 | 36118 ft | 460 kts | 328° |
| 2026-04-30 12:47 | 47.78807 | 45.42744 | 36130 ft | 457 kts | 323° |
| 2026-04-30 12:47 | 47.83725 | 45.37041 | 36123 ft | 445 kts | 311° |
| 2026-04-30 12:48 | 47.88248 | 45.30757 | 36116 ft | 445 kts | 311° |
| 2026-04-30 12:48 | 47.92783 | 45.24530 | 36119 ft | 446 kts | 311° |
| 2026-04-30 12:49 | 47.97373 | 45.18289 | 36137 ft | 447 kts | 311° |
| 2026-04-30 12:49 | 48.01981 | 45.12024 | 36129 ft | 449 kts | 312° |
| 2026-04-30 12:50 | 48.07071 | 45.06455 | 36125 ft | 456 kts | 320° |
| 2026-04-30 12:50 | 48.12400 | 45.01273 | 36129 ft | 457 kts | 320° |
| 2026-04-30 12:51 | 48.17654 | 44.96105 | 36128 ft | 457 kts | 320° |
| 2026-04-30 12:51 | 48.22904 | 44.90840 | 36136 ft | 457 kts | 320° |
| 2026-04-30 12:52 | 48.28185 | 44.85503 | 36140 ft | 457 kts | 320° |
| 2026-04-30 12:52 | 48.33460 | 44.80159 | 36139 ft | 457 kts | 320° |
| 2026-04-30 12:53 | 48.38736 | 44.74804 | 36143 ft | 458 kts | 320° |
| 2026-04-30 12:53 | 48.44013 | 44.69435 | 36154 ft | 458 kts | 320° |
| 2026-04-30 12:54 | 48.49289 | 44.64054 | 36149 ft | 458 kts | 320° |
| 2026-04-30 12:54 | 48.54561 | 44.58663 | 36141 ft | 457 kts | 320° |
| 2026-04-30 12:55 | 48.59829 | 44.53258 | 36168 ft | 458 kts | 319° |
| 2026-04-30 12:55 | 48.65059 | 44.47878 | 36152 ft | 457 kts | 319° |
| 2026-04-30 12:56 | 48.70309 | 44.42463 | 36158 ft | 456 kts | 319° |
| 2026-04-30 12:56 | 48.75551 | 44.37045 | 36181 ft | 455 kts | 320° |
| 2026-04-30 12:57 | 48.81172 | 44.32438 | 36162 ft | 466 kts | 333° |
| 2026-04-30 12:57 | 48.87287 | 44.29053 | 36155 ft | 468 kts | 334° |
| 2026-04-30 12:58 | 48.93374 | 44.25725 | 36158 ft | 468 kts | 334° |
| 2026-04-30 12:58 | 48.99486 | 44.22296 | 36186 ft | 468 kts | 334° |
| 2026-04-30 12:59 | 49.05591 | 44.18819 | 36168 ft | 470 kts | 334° |
| 2026-04-30 12:59 | 49.11726 | 44.15309 | 36159 ft | 471 kts | 334° |
| 2026-04-30 13:00 | 49.17874 | 44.11787 | 36160 ft | 472 kts | 334° |
| 2026-04-30 13:00 | 49.24043 | 44.08244 | 36178 ft | 474 kts | 334° |
| 2026-04-30 13:01 | 49.30222 | 44.04685 | 36166 ft | 475 kts | 334° |
| 2026-04-30 13:01 | 49.36382 | 44.01129 | 36156 ft | 476 kts | 334° |
| 2026-04-30 13:02 | 49.42498 | 43.97588 | 36154 ft | 476 kts | 334° |
| 2026-04-30 13:02 | 49.48693 | 43.93993 | 36154 ft | 476 kts | 334° |
| 2026-04-30 13:03 | 49.54746 | 43.89966 | 36157 ft | 470 kts | 327° |
| 2026-04-30 13:03 | 49.60469 | 43.85114 | 36156 ft | 469 kts | 325° |
| 2026-04-30 13:04 | 49.66162 | 43.80177 | 36159 ft | 470 kts | 325° |
| 2026-04-30 13:04 | 49.71896 | 43.75283 | 36163 ft | 470 kts | 326° |
| 2026-04-30 13:05 | 49.77641 | 43.70429 | 36151 ft | 469 kts | 326° |
| 2026-04-30 13:06 | 49.86237 | 43.63162 | 36149 ft | 468 kts | 326° |
| 2026-04-30 13:06 | 49.91939 | 43.58320 | 36149 ft | 467 kts | 326° |
| 2026-04-30 13:07 | 49.97635 | 43.53469 | 36156 ft | 467 kts | 327° |
| 2026-04-30 13:07 | 50.03285 | 43.48642 | 36152 ft | 466 kts | 327° |
| 2026-04-30 13:08 | 50.08973 | 43.43770 | 36149 ft | 466 kts | 327° |
| 2026-04-30 13:08 | 50.14654 | 43.38891 | 36151 ft | 467 kts | 327° |
| 2026-04-30 13:09 | 50.20347 | 43.33989 | 36157 ft | 467 kts | 327° |
| 2026-04-30 13:09 | 50.26038 | 43.29074 | 36147 ft | 468 kts | 327° |
| 2026-04-30 13:10 | 50.31744 | 43.24133 | 36147 ft | 469 kts | 327° |
| 2026-04-30 13:10 | 50.37451 | 43.19178 | 36147 ft | 469 kts | 327° |
| 2026-04-30 13:11 | 50.43163 | 43.14205 | 36155 ft | 470 kts | 327° |
| 2026-04-30 13:11 | 50.48848 | 43.09241 | 36146 ft | 470 kts | 327° |
| 2026-04-30 13:12 | 50.54564 | 43.04236 | 36145 ft | 470 kts | 327° |
| 2026-04-30 13:12 | 50.60183 | 42.99302 | 36143 ft | 470 kts | 327° |
| 2026-04-30 13:13 | 50.68743 | 42.91769 | 36155 ft | 470 kts | 328° |
| 2026-04-30 13:14 | 50.77940 | 42.86130 | 36143 ft | 475 kts | 338° |
| 2026-04-30 13:14 | 50.87286 | 42.81125 | 36163 ft | 474 kts | 338° |
| 2026-04-30 13:15 | 50.96626 | 42.75931 | 36145 ft | 474 kts | 337° |
| 2026-04-30 13:16 | 51.02830 | 42.72437 | 36147 ft | 473 kts | 337° |
| 2026-04-30 13:16 | 51.08997 | 42.68954 | 36151 ft | 473 kts | 337° |
| 2026-04-30 13:17 | 51.18295 | 42.63690 | 36154 ft | 473 kts | 338° |
| 2026-04-30 13:18 | 51.27604 | 42.58398 | 36150 ft | 473 kts | 337° |
| 2026-04-30 13:18 | 51.36898 | 42.53093 | 36152 ft | 472 kts | 337° |
| 2026-04-30 13:19 | 51.43091 | 42.49544 | 36152 ft | 472 kts | 338° |
| 2026-04-30 13:19 | 51.49280 | 42.45988 | 36149 ft | 472 kts | 338° |
| 2026-04-30 13:20 | 51.55429 | 42.42445 | 36147 ft | 472 kts | 338° |
| 2026-04-30 13:20 | 51.61616 | 42.38869 | 36152 ft | 472 kts | 338° |
| 2026-04-30 13:21 | 51.67804 | 42.35282 | 36157 ft | 472 kts | 338° |
| 2026-04-30 13:22 | 51.77076 | 42.29889 | 36146 ft | 472 kts | 338° |
| 2026-04-30 13:22 | 51.86344 | 42.24474 | 36145 ft | 472 kts | 338° |
| 2026-04-30 13:23 | 51.95602 | 42.19041 | 36149 ft | 472 kts | 338° |
| 2026-04-30 13:24 | 52.07940 | 42.11762 | 36148 ft | 472 kts | 338° |
| 2026-04-30 13:25 | 52.20350 | 42.04838 | 36161 ft | 473 kts | 339° |
| 2026-04-30 13:26 | 52.35902 | 41.96411 | 36143 ft | 475 kts | 345° |
| 2026-04-30 13:27 | 52.42492 | 41.95524 | 36160 ft | 478 kts | 0° |
| 2026-04-30 13:28 | 52.52485 | 41.96289 | 36166 ft | 478 kts | 1° |
| 2026-04-30 13:28 | 52.62426 | 41.96853 | 36157 ft | 478 kts | 0° |
| 2026-04-30 13:29 | 52.69035 | 41.96491 | 36153 ft | 473 kts | 344° |
| 2026-04-30 13:29 | 52.74947 | 41.92063 | 36154 ft | 466 kts | 320° |
| 2026-04-30 13:31 | 52.86558 | 41.76157 | 36162 ft | 466 kts | 319° |
| 2026-04-30 13:32 | 52.99116 | 41.59121 | 36161 ft | 467 kts | 319° |
| 2026-04-30 13:33 | 53.09152 | 41.45428 | 36162 ft | 467 kts | 319° |
| 2026-04-30 13:34 | 53.16633 | 41.35163 | 36166 ft | 466 kts | 319° |
| 2026-04-30 13:34 | 53.24583 | 41.25877 | 36175 ft | 468 kts | 335° |
| 2026-04-30 13:35 | 53.27645 | 41.24030 | 36178 ft | 468 kts | 341° |
| 2026-04-30 13:36 | 53.40144 | 41.17891 | 36165 ft | 467 kts | 342° |
| 2026-04-30 13:36 | 53.49469 | 41.13128 | 36179 ft | 467 kts | 341° |
| 2026-04-30 13:37 | 53.58794 | 41.08314 | 36175 ft | 467 kts | 342° |
| 2026-04-30 13:38 | 53.67953 | 41.03080 | 36157 ft | 464 kts | 327° |
| 2026-04-30 13:38 | 53.72296 | 40.95518 | 36172 ft | 458 kts | 296° |
| 2026-04-30 13:39 | 53.74850 | 40.85673 | 36198 ft | 458 kts | 292° |
| 2026-04-30 13:40 | 53.78573 | 40.70762 | 36185 ft | 459 kts | 293° |
| 2026-04-30 13:40 | 53.81111 | 40.60847 | 36195 ft | 459 kts | 293° |
| 2026-04-30 13:41 | 53.83653 | 40.50926 | 36198 ft | 459 kts | 293° |
| 2026-04-30 13:41 | 53.86187 | 40.40979 | 36201 ft | 459 kts | 293° |
| 2026-04-30 13:42 | 53.88713 | 40.31015 | 36206 ft | 460 kts | 293° |
| 2026-04-30 13:42 | 53.92464 | 40.16127 | 36188 ft | 460 kts | 293° |
| 2026-04-30 13:43 | 53.94971 | 40.06123 | 36202 ft | 460 kts | 292° |
| 2026-04-30 13:43 | 53.97429 | 39.96273 | 36198 ft | 460 kts | 292° |
| 2026-04-30 13:44 | 53.99917 | 39.86256 | 36198 ft | 460 kts | 293° |
| 2026-04-30 13:44 | 54.02392 | 39.76243 | 36195 ft | 459 kts | 293° |
| 2026-04-30 13:45 | 54.04861 | 39.66214 | 35915 ft | 464 kts | 292° |
| 2026-04-30 13:45 | 54.06112 | 39.61114 | 35376 ft | 464 kts | 293° |
| 2026-04-30 13:45 | 54.07335 | 39.56114 | 34701 ft | 464 kts | 293° |
| 2026-04-30 13:46 | 54.08578 | 39.51026 | 34011 ft | 465 kts | 293° |
| 2026-04-30 13:46 | 54.09819 | 39.45933 | 33265 ft | 464 kts | 292° |
| 2026-04-30 13:46 | 54.11053 | 39.40854 | 32499 ft | 464 kts | 292° |
| 2026-04-30 13:46 | 54.12282 | 39.35787 | 31843 ft | 461 kts | 292° |
| 2026-04-30 13:47 | 54.13503 | 39.30735 | 31056 ft | 461 kts | 292° |
| 2026-04-30 13:47 | 54.14723 | 39.25680 | 30322 ft | 460 kts | 292° |
| 2026-04-30 13:47 | 54.15938 | 39.20634 | 29382 ft | 459 kts | 292° |
| 2026-04-30 13:47 | 54.17132 | 39.15663 | 29236 ft | 443 kts | 292° |
| 2026-04-30 13:48 | 54.18285 | 39.10854 | 28946 ft | 431 kts | 291° |
| 2026-04-30 13:48 | 54.19404 | 39.06179 | 28766 ft | 418 kts | 292° |
| 2026-04-30 13:48 | 54.20485 | 39.01651 | 28609 ft | 405 kts | 291° |
| 2026-04-30 13:48 | 54.21506 | 38.97365 | 28433 ft | 397 kts | 291° |
| 2026-04-30 13:49 | 54.22604 | 38.93053 | 28261 ft | 396 kts | 300° |
| 2026-04-30 13:49 | 54.24313 | 38.89443 | 28131 ft | 386 kts | 317° |
| 2026-04-30 13:49 | 54.26508 | 38.86879 | 27921 ft | 380 kts | 331° |
| 2026-04-30 13:49 | 54.28891 | 38.84847 | 27781 ft | 387 kts | 333° |
| 2026-04-30 13:50 | 54.31339 | 38.82833 | 27575 ft | 394 kts | 333° |
| 2026-04-30 13:50 | 54.36217 | 38.78789 | 27173 ft | 389 kts | 332° |
| 2026-04-30 13:50 | 54.38641 | 38.76742 | 26986 ft | 386 kts | 332° |
| 2026-04-30 13:51 | 54.41041 | 38.74697 | 26803 ft | 383 kts | 332° |
| 2026-04-30 13:51 | 54.43424 | 38.72657 | 26623 ft | 381 kts | 332° |
| 2026-04-30 13:51 | 54.45792 | 38.70626 | 26439 ft | 380 kts | 331° |
| 2026-04-30 13:51 | 54.48156 | 38.68597 | 26293 ft | 379 kts | 332° |
| 2026-04-30 13:52 | 54.50515 | 38.66568 | 26241 ft | 380 kts | 332° |
| 2026-04-30 13:52 | 54.52880 | 38.64528 | 26223 ft | 380 kts | 332° |
| 2026-04-30 13:52 | 54.55247 | 38.62482 | 26235 ft | 380 kts | 332° |
| 2026-04-30 13:52 | 54.57610 | 38.60436 | 26217 ft | 381 kts | 332° |
| 2026-04-30 13:53 | 54.59971 | 38.58390 | 26207 ft | 380 kts | 332° |
| 2026-04-30 13:53 | 54.62328 | 38.56344 | 26218 ft | 379 kts | 332° |
| 2026-04-30 13:53 | 54.64681 | 38.54300 | 26220 ft | 379 kts | 332° |
| 2026-04-30 13:53 | 54.67038 | 38.52250 | 26212 ft | 379 kts | 332° |
| 2026-04-30 13:54 | 54.69391 | 38.50201 | 26222 ft | 378 kts | 332° |
| 2026-04-30 13:54 | 54.71741 | 38.48152 | 26221 ft | 379 kts | 332° |
| 2026-04-30 13:54 | 54.74090 | 38.46102 | 26196 ft | 378 kts | 333° |
| 2026-04-30 13:54 | 54.76447 | 38.44057 | 26134 ft | 377 kts | 333° |
| 2026-04-30 13:55 | 54.78799 | 38.42021 | 26072 ft | 378 kts | 333° |
| 2026-04-30 13:55 | 54.81120 | 38.40009 | 26012 ft | 378 kts | 333° |
| 2026-04-30 13:55 | 54.83501 | 38.37941 | 25950 ft | 377 kts | 333° |
| 2026-04-30 13:55 | 54.85813 | 38.35926 | 25898 ft | 377 kts | 333° |
| 2026-04-30 13:56 | 54.88147 | 38.33875 | 25835 ft | 376 kts | 332° |
| 2026-04-30 13:56 | 54.90486 | 38.31813 | 25764 ft | 376 kts | 332° |
| 2026-04-30 13:56 | 54.92820 | 38.29750 | 25718 ft | 376 kts | 332° |
| 2026-04-30 13:56 | 54.95146 | 38.27691 | 25651 ft | 376 kts | 332° |
| 2026-04-30 13:57 | 54.97479 | 38.25625 | 25591 ft | 375 kts | 332° |
| 2026-04-30 13:57 | 54.99806 | 38.23562 | 25536 ft | 375 kts | 332° |
| 2026-04-30 13:57 | 55.02124 | 38.21505 | 25475 ft | 374 kts | 333° |
| 2026-04-30 13:57 | 55.04436 | 38.19450 | 25401 ft | 373 kts | 333° |
| 2026-04-30 13:58 | 55.06745 | 38.17396 | 25358 ft | 372 kts | 333° |
| 2026-04-30 13:58 | 55.11336 | 38.13305 | 25235 ft | 369 kts | 333° |
| 2026-04-30 13:58 | 55.13632 | 38.11293 | 25170 ft | 369 kts | 334° |
| 2026-04-30 13:59 | 55.15959 | 38.09412 | 25073 ft | 369 kts | 335° |
| 2026-04-30 13:59 | 55.18299 | 38.07576 | 24982 ft | 369 kts | 335° |
| 2026-04-30 13:59 | 55.20641 | 38.05741 | 24903 ft | 369 kts | 335° |
| 2026-04-30 13:59 | 55.22985 | 38.03890 | 24811 ft | 369 kts | 335° |
| 2026-04-30 14:00 | 55.25323 | 38.02030 | 24721 ft | 369 kts | 335° |
| 2026-04-30 14:00 | 55.29905 | 37.98356 | 24551 ft | 368 kts | 336° |
| 2026-04-30 14:00 | 55.32226 | 37.96488 | 24466 ft | 365 kts | 335° |
| 2026-04-30 14:01 | 55.34515 | 37.94643 | 24354 ft | 360 kts | 335° |
| 2026-04-30 14:01 | 55.36787 | 37.92810 | 24288 ft | 360 kts | 335° |
| 2026-04-30 14:01 | 55.39106 | 37.91121 | 24180 ft | 362 kts | 345° |
| 2026-04-30 14:01 | 55.41598 | 37.90516 | 23995 ft | 361 kts | 355° |
| 2026-04-30 14:02 | 55.44075 | 37.90172 | 23786 ft | 361 kts | 355° |
| 2026-04-30 14:02 | 55.46580 | 37.89813 | 23550 ft | 361 kts | 354° |
| 2026-04-30 14:02 | 55.49081 | 37.89433 | 23325 ft | 360 kts | 354° |
| 2026-04-30 14:02 | 55.51569 | 37.89038 | 23119 ft | 359 kts | 354° |
| 2026-04-30 14:03 | 55.54053 | 37.88632 | 22920 ft | 357 kts | 354° |
| 2026-04-30 14:03 | 55.56521 | 37.88223 | 22738 ft | 356 kts | 354° |
| 2026-04-30 14:03 | 55.58983 | 37.87812 | 22536 ft | 354 kts | 354° |
| 2026-04-30 14:03 | 55.61429 | 37.87404 | 22344 ft | 353 kts | 354° |
| 2026-04-30 14:04 | 55.63870 | 37.86995 | 22139 ft | 351 kts | 354° |
| 2026-04-30 14:04 | 55.66293 | 37.86680 | 21938 ft | 349 kts | 358° |
| 2026-04-30 14:04 | 55.68717 | 37.86641 | 21736 ft | 346 kts | 360° |
| 2026-04-30 14:04 | 55.71098 | 37.86662 | 21535 ft | 338 kts | 1° |
| 2026-04-30 14:05 | 55.73370 | 37.87474 | 21338 ft | 331 kts | 22° |
| 2026-04-30 14:05 | 55.75279 | 37.89640 | 21254 ft | 324 kts | 41° |
| 2026-04-30 14:05 | 55.76733 | 37.92661 | 21233 ft | 324 kts | 55° |
| 2026-04-30 14:05 | 55.77650 | 37.96341 | 21235 ft | 330 kts | 72° |
| 2026-04-30 14:06 | 55.78157 | 38.00337 | 21235 ft | 333 kts | 76° |
| 2026-04-30 14:06 | 55.79072 | 38.08392 | 21238 ft | 332 kts | 75° |
| 2026-04-30 14:07 | 55.80030 | 38.16404 | 21223 ft | 331 kts | 75° |
| 2026-04-30 14:07 | 55.80527 | 38.20398 | 21225 ft | 331 kts | 75° |
| 2026-04-30 14:07 | 55.81025 | 38.24399 | 21233 ft | 331 kts | 76° |
| 2026-04-30 14:08 | 55.82040 | 38.32617 | 21238 ft | 333 kts | 76° |
| 2026-04-30 14:08 | 55.82576 | 38.36370 | 21231 ft | 333 kts | 65° |
| 2026-04-30 14:08 | 55.85500 | 38.42537 | 21249 ft | 329 kts | 38° |
| 2026-04-30 14:09 | 55.87243 | 38.45198 | 21240 ft | 331 kts | 39° |
| 2026-04-30 14:09 | 55.88982 | 38.47889 | 21238 ft | 332 kts | 39° |
| 2026-04-30 14:09 | 55.92812 | 38.52259 | 21233 ft | 326 kts | 9° |
| 2026-04-30 14:10 | 55.95056 | 38.52359 | 21126 ft | 325 kts | 349° |
| 2026-04-30 14:10 | 55.97184 | 38.51047 | 20762 ft | 324 kts | 329° |
| 2026-04-30 14:10 | 55.98982 | 38.48635 | 20470 ft | 322 kts | 320° |
| 2026-04-30 14:10 | 56.00662 | 38.46024 | 20165 ft | 321 kts | 320° |
| 2026-04-30 14:11 | 56.02323 | 38.43436 | 19866 ft | 319 kts | 320° |
| 2026-04-30 14:11 | 56.03886 | 38.40661 | 19536 ft | 317 kts | 305° |
| 2026-04-30 14:11 | 56.04770 | 38.37086 | 19270 ft | 315 kts | 284° |
| 2026-04-30 14:11 | 56.04931 | 38.33190 | 18974 ft | 315 kts | 264° |
| 2026-04-30 14:12 | 56.04536 | 38.29346 | 18712 ft | 314 kts | 259° |
| 2026-04-30 14:12 | 56.04056 | 38.25537 | 18399 ft | 314 kts | 259° |
| 2026-04-30 14:12 | 56.03566 | 38.21739 | 18071 ft | 312 kts | 259° |
| 2026-04-30 14:12 | 56.03240 | 38.19188 | 17865 ft | 311 kts | 259° |
| 2026-04-30 14:13 | 56.02614 | 38.14213 | 17480 ft | 309 kts | 259° |
| 2026-04-30 14:13 | 56.02149 | 38.10461 | 17182 ft | 307 kts | 259° |
| 2026-04-30 14:13 | 56.01690 | 38.06736 | 16914 ft | 306 kts | 259° |
| 2026-04-30 14:13 | 56.01233 | 38.03032 | 16633 ft | 305 kts | 259° |
| 2026-04-30 14:14 | 56.00775 | 37.99331 | 16347 ft | 305 kts | 259° |
| 2026-04-30 14:14 | 56.00551 | 37.95594 | 16075 ft | 300 kts | 278° |
| 2026-04-30 14:14 | 56.00938 | 37.91973 | 15952 ft | 294 kts | 283° |
| 2026-04-30 14:14 | 56.01340 | 37.88435 | 15751 ft | 293 kts | 282° |
| 2026-04-30 14:15 | 56.01734 | 37.84799 | 15572 ft | 296 kts | 282° |
| 2026-04-30 14:15 | 56.02125 | 37.81166 | 15369 ft | 300 kts | 285° |
| 2026-04-30 14:15 | 56.02953 | 37.77845 | 15161 ft | 296 kts | 310° |
| 2026-04-30 14:15 | 56.04476 | 37.75429 | 14923 ft | 293 kts | 330° |
| 2026-04-30 14:16 | 56.06296 | 37.73778 | 14691 ft | 293 kts | 336° |
| 2026-04-30 14:16 | 56.08171 | 37.72295 | 14435 ft | 294 kts | 336° |
| 2026-04-30 14:16 | 56.09433 | 37.71292 | 14254 ft | 295 kts | 336° |
| 2026-04-30 14:16 | 56.11302 | 37.69777 | 13996 ft | 295 kts | 336° |
| 2026-04-30 14:17 | 56.13886 | 37.68553 | 13606 ft | 289 kts | 0° |
| 2026-04-30 14:17 | 56.15872 | 37.68792 | 13379 ft | 284 kts | 4° |
| 2026-04-30 14:17 | 56.17197 | 37.69017 | 13197 ft | 283 kts | 5° |
| 2026-04-30 14:17 | 56.19154 | 37.69354 | 12956 ft | 282 kts | 4° |
| 2026-04-30 14:18 | 56.21081 | 37.69673 | 12734 ft | 283 kts | 4° |
| 2026-04-30 14:18 | 56.23048 | 37.69984 | 12478 ft | 286 kts | 4° |
| 2026-04-30 14:18 | 56.27016 | 37.70596 | 11951 ft | 285 kts | 4° |
| 2026-04-30 14:19 | 56.30757 | 37.69328 | 11494 ft | 274 kts | 326° |
| 2026-04-30 14:19 | 56.32160 | 37.67056 | 11251 ft | 270 kts | 312° |
| 2026-04-30 14:19 | 56.33350 | 37.64461 | 11014 ft | 267 kts | 309° |
| 2026-04-30 14:20 | 56.34506 | 37.61865 | 10775 ft | 264 kts | 310° |
| 2026-04-30 14:20 | 56.35659 | 37.59312 | 10540 ft | 261 kts | 310° |
| 2026-04-30 14:20 | 56.37927 | 37.54257 | 9988 ft | 257 kts | 306° |
| 2026-04-30 14:21 | 56.38900 | 37.51623 | 9779 ft | 252 kts | 303° |
| 2026-04-30 14:21 | 56.39839 | 37.48994 | 9629 ft | 245 kts | 303° |
| 2026-04-30 14:21 | 56.41657 | 37.43963 | 9364 ft | 234 kts | 304° |
| 2026-04-30 14:22 | 56.42546 | 37.41519 | 9245 ft | 233 kts | 303° |
| 2026-04-30 14:22 | 56.43204 | 37.35879 | 9026 ft | 234 kts | 275° |
| 2026-04-30 14:22 | 56.43286 | 37.32933 | 8895 ft | 235 kts | 275° |
| 2026-04-30 14:23 | 56.43453 | 37.27003 | 8642 ft | 237 kts | 275° |
| 2026-04-30 14:23 | 56.43388 | 37.21030 | 8358 ft | 243 kts | 250° |
| 2026-04-30 14:24 | 56.41915 | 37.15615 | 8116 ft | 237 kts | 246° |
| 2026-04-30 14:24 | 56.41193 | 37.12955 | 7988 ft | 235 kts | 246° |
| 2026-04-30 14:25 | 56.38795 | 37.09378 | 7747 ft | 239 kts | 188° |
| 2026-04-30 14:25 | 56.35748 | 37.11568 | 7525 ft | 249 kts | 139° |
| 2026-04-30 14:26 | 56.33178 | 37.15905 | 7233 ft | 254 kts | 136° |
| 2026-04-30 14:26 | 56.31904 | 37.18080 | 7075 ft | 251 kts | 137° |
| 2026-04-30 14:26 | 56.29387 | 37.22302 | 6800 ft | 244 kts | 137° |
| 2026-04-30 14:27 | 56.28137 | 37.24374 | 6682 ft | 245 kts | 138° |
| 2026-04-30 14:27 | 56.26881 | 37.26449 | 6550 ft | 245 kts | 138° |
| 2026-04-30 14:27 | 56.25620 | 37.28509 | 6411 ft | 246 kts | 141° |
| 2026-04-30 14:28 | 56.22467 | 37.30600 | 6148 ft | 243 kts | 166° |
| 2026-04-30 14:28 | 56.20835 | 37.31391 | 5994 ft | 243 kts | 166° |
| 2026-04-30 14:28 | 56.19197 | 37.32197 | 5876 ft | 243 kts | 166° |
| 2026-04-30 14:28 | 56.17674 | 37.33490 | 5717 ft | 245 kts | 137° |
| 2026-04-30 14:29 | 56.16754 | 37.38969 | 5497 ft | 237 kts | 77° |
| 2026-04-30 14:29 | 56.17599 | 37.44660 | 5237 ft | 236 kts | 72° |
| 2026-04-30 14:30 | 56.18911 | 37.53175 | 4838 ft | 235 kts | 73° |
| 2026-04-30 14:31 | 56.19317 | 37.58921 | 4560 ft | 240 kts | 110° |
| 2026-04-30 14:31 | 56.17213 | 37.63457 | 4358 ft | 239 kts | 135° |
| 2026-04-30 14:31 | 56.16038 | 37.65576 | 4206 ft | 240 kts | 134° |
| 2026-04-30 14:32 | 56.13702 | 37.69826 | 3929 ft | 239 kts | 134° |
| 2026-04-30 14:32 | 56.12543 | 37.71942 | 3795 ft | 235 kts | 134° |
| 2026-04-30 14:32 | 56.11400 | 37.74032 | 3654 ft | 228 kts | 134° |
| 2026-04-30 14:33 | 56.10311 | 37.75999 | 3542 ft | 224 kts | 138° |
| 2026-04-30 14:33 | 56.07451 | 37.76844 | 3360 ft | 219 kts | 198° |
| 2026-04-30 14:33 | 56.05986 | 37.76021 | 3240 ft | 223 kts | 200° |
| 2026-04-30 14:34 | 56.04499 | 37.75145 | 3102 ft | 226 kts | 200° |
| 2026-04-30 14:34 | 56.03013 | 37.74245 | 2962 ft | 223 kts | 207° |
| 2026-04-30 14:34 | 56.01902 | 37.72526 | 2825 ft | 205 kts | 247° |
| 2026-04-30 14:34 | 56.01476 | 37.70200 | 2745 ft | 193 kts | 256° |
| 2026-04-30 14:35 | 56.00760 | 37.65621 | 2524 ft | 189 kts | 257° |
| 2026-04-30 14:35 | 56.00417 | 37.63337 | 2399 ft | 191 kts | 257° |
| 2026-04-30 14:35 | 56.00073 | 37.61059 | 2266 ft | 186 kts | 257° |
| 2026-04-30 14:36 | 55.99744 | 37.58882 | 2138 ft | 176 kts | 257° |
| 2026-04-30 14:36 | 55.99434 | 37.56822 | 2014 ft | 171 kts | 257° |
| 2026-04-30 14:36 | 55.99128 | 37.54783 | 1808 ft | 169 kts | 257° |
| 2026-04-30 14:36 | 55.98834 | 37.52835 | 1636 ft | 155 kts | 258° |
| 2026-04-30 14:37 | 55.98567 | 37.51049 | 1414 ft | 146 kts | 258° |
| 2026-04-30 14:37 | 55.98299 | 37.49332 | 1247 ft | 141 kts | 258° |
| 2026-04-30 14:37 | 55.98041 | 37.47624 | 1078 ft | 144 kts | 257° |
| 2026-04-30 14:37 | 55.97780 | 37.45890 | 881 ft | 146 kts | 257° |
| 2026-04-30 14:38 | 55.97532 | 37.44156 | 692 ft | 146 kts | 257° |
| 2026-04-30 14:38 | 55.97279 | 37.42421 | 658 ft | 141 kts | 258° |
| 2026-04-30 14:38 | 55.97032 | 37.40719 | 673 ft | 143 kts | 257° |
| 2026-04-30 14:38 | 55.96761 | 37.38955 | 1113 ft | 147 kts | 255° |
| 2026-04-30 14:39 | 55.96479 | 37.37124 | 1753 ft | 160 kts | 259° |
| 2026-04-30 14:39 | 55.96100 | 37.35124 | 2188 ft | 190 kts | 233° |
| 2026-04-30 14:39 | 55.94895 | 37.33827 | 2522 ft | 217 kts | 199° |
| 2026-04-30 14:40 | 55.92012 | 37.31427 | 2996 ft | 249 kts | 211° |
| 2026-04-30 14:40 | 55.90467 | 37.29897 | 2972 ft | 256 kts | 210° |
| 2026-04-30 14:40 | 55.88904 | 37.28356 | 3003 ft | 257 kts | 210° |
| 2026-04-30 14:40 | 55.87371 | 37.26707 | 2991 ft | 257 kts | 223° |
| 2026-04-30 14:41 | 55.86379 | 37.24135 | 3000 ft | 252 kts | 255° |
| 2026-04-30 14:41 | 55.86259 | 37.21075 | 2998 ft | 249 kts | 280° |
| 2026-04-30 14:41 | 55.86769 | 37.18158 | 3007 ft | 249 kts | 293° |
| 2026-04-30 14:41 | 55.87476 | 37.15341 | 3010 ft | 249 kts | 295° |
| 2026-04-30 14:42 | 55.88201 | 37.12527 | 3006 ft | 249 kts | 295° |
| 2026-04-30 14:42 | 55.88907 | 37.09729 | 3000 ft | 247 kts | 295° |
| 2026-04-30 14:42 | 55.89597 | 37.06945 | 2986 ft | 246 kts | 294° |
| 2026-04-30 14:42 | 55.90291 | 37.04126 | 3000 ft | 250 kts | 294° |
| 2026-04-30 14:43 | 55.91013 | 37.01304 | 2995 ft | 251 kts | 301° |
| 2026-04-30 14:43 | 55.92123 | 36.99220 | 3010 ft | 250 kts | 324° |
| 2026-04-30 14:43 | 55.93563 | 36.97450 | 3007 ft | 251 kts | 325° |
| 2026-04-30 14:43 | 55.94983 | 36.95703 | 2994 ft | 251 kts | 324° |
| 2026-04-30 14:44 | 55.96409 | 36.93941 | 3001 ft | 248 kts | 324° |
| 2026-04-30 14:44 | 55.97850 | 36.92209 | 2988 ft | 246 kts | 331° |
| 2026-04-30 14:44 | 55.99480 | 36.91511 | 3004 ft | 247 kts | 1° |
| 2026-04-30 14:44 | 56.01141 | 36.92262 | 2999 ft | 250 kts | 24° |
| 2026-04-30 14:45 | 56.02640 | 36.93857 | 3007 ft | 251 kts | 32° |
| 2026-04-30 14:45 | 56.04091 | 36.95603 | 2996 ft | 251 kts | 32° |
| 2026-04-30 14:45 | 56.05544 | 36.97353 | 3006 ft | 252 kts | 32° |
| 2026-04-30 14:45 | 56.07010 | 36.99093 | 3003 ft | 253 kts | 31° |
| 2026-04-30 14:46 | 56.08484 | 37.00829 | 2992 ft | 254 kts | 31° |
| 2026-04-30 14:46 | 56.09955 | 37.02553 | 2996 ft | 253 kts | 31° |
| 2026-04-30 14:46 | 56.11357 | 37.04461 | 2985 ft | 255 kts | 46° |
| 2026-04-30 14:46 | 56.12248 | 37.07215 | 3013 ft | 258 kts | 68° |
| 2026-04-30 14:47 | 56.12755 | 37.10309 | 3007 ft | 259 kts | 74° |
| 2026-04-30 14:47 | 56.13185 | 37.13447 | 2997 ft | 259 kts | 75° |
| 2026-04-30 14:47 | 56.13608 | 37.16598 | 3000 ft | 259 kts | 75° |
| 2026-04-30 14:47 | 56.14032 | 37.19710 | 3003 ft | 261 kts | 74° |
| 2026-04-30 14:48 | 56.14472 | 37.22878 | 3009 ft | 261 kts | 74° |
| 2026-04-30 14:48 | 56.14917 | 37.26044 | 2996 ft | 262 kts | 74° |
| 2026-04-30 14:48 | 56.15362 | 37.29204 | 3001 ft | 261 kts | 74° |
| 2026-04-30 14:48 | 56.15806 | 37.32355 | 3002 ft | 261 kts | 73° |
| 2026-04-30 14:49 | 56.16259 | 37.35501 | 3008 ft | 260 kts | 72° |
| 2026-04-30 14:49 | 56.16730 | 37.38627 | 2997 ft | 260 kts | 72° |
| 2026-04-30 14:49 | 56.17205 | 37.41759 | 2989 ft | 259 kts | 72° |
| 2026-04-30 14:49 | 56.17677 | 37.44874 | 2995 ft | 258 kts | 73° |
| 2026-04-30 14:50 | 56.18608 | 37.51074 | 2983 ft | 257 kts | 73° |
| 2026-04-30 14:50 | 56.19073 | 37.54178 | 2994 ft | 256 kts | 72° |
| 2026-04-30 14:51 | 56.18826 | 37.60248 | 2990 ft | 244 kts | 122° |
| 2026-04-30 14:51 | 56.17776 | 37.62527 | 2977 ft | 232 kts | 133° |
| 2026-04-30 14:51 | 56.15628 | 37.66363 | 2985 ft | 207 kts | 135° |
| 2026-04-30 14:52 | 56.14613 | 37.68188 | 3005 ft | 206 kts | 134° |
| 2026-04-30 14:52 | 56.12625 | 37.71800 | 2974 ft | 201 kts | 134° |
| 2026-04-30 14:52 | 56.11649 | 37.73581 | 2980 ft | 200 kts | 134° |
| 2026-04-30 14:53 | 56.09583 | 37.77049 | 2969 ft | 205 kts | 156° |
| 2026-04-30 14:53 | 56.08339 | 37.77286 | 2999 ft | 197 kts | 197° |